Aviation Digital Data Service (ADDS)

Output produced by METARs form (0412 UTC 02 September 2014)
found at http://aviationweather.gov/adds/metars/
 
KDCA 012328Z 0200/0224 VRB03KT P6SM SCT050 BKN250 
     FM021200 27005KT P6SM SCT250 
     FM022000 21008KT P6SM BKN050